Terminal Aerodrome Forecast
Issued by NWS

Home | Current Version | Previous Version | Text Only | Print | Product List | Glossary On
Versions: 1 2 3 4 5 6 7 8 9 10 11 12 13 14 15 16 17
000
FTUS43 KGRB 232320
TAFMTW
TAF
KMTW 232320Z 2400/2424 18012G18KT P6SM SCT100
     FM240200 18004KT P6SM BKN090
     FM241500 16011G18KT P6SM BKN070
     FM242100 13010KT P6SM -SHRA SCT025 OVC040
      TEMPO 2422/2424 5SM -SHRA BR BKN020=

USA.gov is the U.S. government's official web portal to all federal, state and local government web resources and services.